createdAt,value
2023-05-19T00:01:29.546Z,13.78
2023-05-19T00:03:58.979Z,13.74
2023-05-19T00:06:31.611Z,13.61
2023-05-19T00:09:04.738Z,13.74
2023-05-19T00:11:31.942Z,13.60
2023-05-19T00:14:00.367Z,13.63
2023-05-19T00:16:29.616Z,13.69
2023-05-19T00:19:00.270Z,13.69
2023-05-19T00:21:28.666Z,13.73
2023-05-19T00:23:58.506Z,13.71
2023-05-19T00:26:28.302Z,13.51
2023-05-19T00:28:55.835Z,13.56
2023-05-19T00:31:27.437Z,13.69
2023-05-19T00:33:55.760Z,13.65
2023-05-19T00:36:26.104Z,13.64
2023-05-19T00:38:53.044Z,13.67
2023-05-19T00:41:23.102Z,13.54
2023-05-19T00:43:53.685Z,13.61
2023-05-19T00:46:20.726Z,13.67
2023-05-19T00:48:49.867Z,13.60
2023-05-19T00:51:20.362Z,13.71
2023-05-19T00:53:52.144Z,13.68
2023-05-19T00:56:21.008Z,13.62
2023-05-19T00:58:51.102Z,13.48
2023-05-19T01:01:21.843Z,13.45
2023-05-19T01:03:49.389Z,13.52
2023-05-19T01:06:19.147Z,13.49
2023-05-19T01:08:46.562Z,13.39
2023-05-19T01:11:15.976Z,13.40
2023-05-19T01:13:43.502Z,13.48
2023-05-19T01:16:30.793Z,13.49
2023-05-19T01:19:04.751Z,13.48
2023-05-19T01:21:56.216Z,13.28
2023-05-19T01:24:54.797Z,13.27
2023-05-19T01:28:12.949Z,13.27
2023-05-19T01:30:39.804Z,13.28
2023-05-19T01:33:15.984Z,13.25
2023-05-19T01:35:44.217Z,13.09
2023-05-19T01:38:15.580Z,13.13
2023-05-19T01:40:47.605Z,13.20
2023-05-19T01:43:22.616Z,13.19
2023-05-19T01:45:51.044Z,13.29
2023-05-19T01:48:23.233Z,13.15
2023-05-19T01:50:50.635Z,13.13
2023-05-19T01:53:23.204Z,12.96
2023-05-19T01:55:54.311Z,13.09
2023-05-19T01:58:47.920Z,13.15
2023-05-19T02:01:52.433Z,13.07
2023-05-19T02:04:43.815Z,12.90
2023-05-19T02:07:42.647Z,12.89
2023-05-19T02:10:19.651Z,12.85
2023-05-19T02:12:47.826Z,12.94
2023-05-19T02:15:26.722Z,12.95
2023-05-19T02:17:55.978Z,12.92
2023-05-19T02:20:25.098Z,12.88
2023-05-19T02:22:54.308Z,12.73
2023-05-19T02:25:21.682Z,12.79
2023-05-19T02:27:49.169Z,12.79
2023-05-19T02:30:16.341Z,12.88
2023-05-19T02:32:46.835Z,12.83
2023-05-19T02:35:14.239Z,12.71
2023-05-19T02:37:46.039Z,12.70
2023-05-19T02:40:13.080Z,12.67
2023-05-19T02:42:39.980Z,12.61
2023-05-19T02:45:10.668Z,12.66
2023-05-19T02:47:43.062Z,12.89
2023-05-19T02:50:12.509Z,12.77
2023-05-19T02:52:39.496Z,12.51
2023-05-19T02:55:16.910Z,12.64
2023-05-19T02:57:43.977Z,12.44
2023-05-19T03:00:11.671Z,12.45
2023-05-19T03:02:39.638Z,12.57
2023-05-19T03:05:08.198Z,12.55
2023-05-19T03:07:37.588Z,12.52
2023-05-19T03:10:09.664Z,12.46
2023-05-19T03:12:36.566Z,12.45
2023-05-19T03:15:03.829Z,12.55
2023-05-19T03:17:34.371Z,12.44
2023-05-19T03:20:01.781Z,12.57
2023-05-19T03:22:33.789Z,12.45
2023-05-19T03:25:05.774Z,12.54
2023-05-19T03:27:34.711Z,12.54
2023-05-19T03:30:02.700Z,12.38
2023-05-19T03:32:32.805Z,12.40
2023-05-19T03:34:59.924Z,12.27
2023-05-19T03:37:26.818Z,12.39
2023-05-19T03:39:55.839Z,12.35
2023-05-19T03:42:25.517Z,12.33
2023-05-19T03:44:52.453Z,12.38
2023-05-19T03:47:21.458Z,12.26
2023-05-19T03:49:48.716Z,12.49
2023-05-19T03:52:15.765Z,12.37
2023-05-19T03:54:43.181Z,12.57
2023-05-19T03:57:11.180Z,12.65
2023-05-19T03:59:41.481Z,12.66
2023-05-19T04:02:13.001Z,12.64
2023-05-19T04:04:42.260Z,12.58
2023-05-19T04:07:09.141Z,12.42
2023-05-19T04:09:37.702Z,12.63
2023-05-19T04:12:04.967Z,12.63
2023-05-19T04:14:34.358Z,12.65
2023-05-19T04:17:01.263Z,12.78
2023-05-19T04:19:28.425Z,12.87
2023-05-19T04:21:57.790Z,12.89
2023-05-19T04:24:24.724Z,12.91
2023-05-19T04:26:54.119Z,13.04
2023-05-19T04:29:24.310Z,12.88
2023-05-19T04:31:51.243Z,13.00
2023-05-19T04:34:19.940Z,13.14
2023-05-19T04:36:47.996Z,13.42
2023-05-19T04:39:19.982Z,13.39
2023-05-19T04:41:48.954Z,13.33
2023-05-19T04:44:18.130Z,13.10
2023-05-19T04:46:47.749Z,13.47
2023-05-19T04:49:14.707Z,13.34
2023-05-19T04:51:46.051Z,13.57
2023-05-19T04:54:12.982Z,13.60
2023-05-19T04:56:43.622Z,13.58
2023-05-19T04:59:12.873Z,13.79
2023-05-19T05:01:40.873Z,13.90
2023-05-19T05:04:07.985Z,14.07
2023-05-19T05:06:42.320Z,14.00
2023-05-19T05:09:10.451Z,14.01
2023-05-19T05:11:37.777Z,13.90
2023-05-19T05:14:05.053Z,14.04
2023-05-19T05:16:32.780Z,14.25
2023-05-19T05:19:03.051Z,14.22
2023-05-19T05:21:31.809Z,14.26
2023-05-19T05:23:59.348Z,14.12
2023-05-19T05:26:31.657Z,14.14
2023-05-19T05:29:00.756Z,14.00
2023-05-19T05:31:27.658Z,14.51
2023-05-19T05:33:59.441Z,14.49
2023-05-19T05:36:31.651Z,14.78
2023-05-19T05:38:59.553Z,14.68
2023-05-19T05:41:27.352Z,14.38
2023-05-19T05:43:54.285Z,14.93
2023-05-19T05:46:24.192Z,14.82
2023-05-19T05:48:55.984Z,15.07
2023-05-19T05:51:28.507Z,14.98
2023-05-19T05:53:56.193Z,14.81
2023-05-19T05:56:23.556Z,15.03
2023-05-19T05:58:52.533Z,15.07
2023-05-19T06:01:20.960Z,15.48
2023-05-19T06:03:48.033Z,15.66
2023-05-19T06:06:17.450Z,15.76
2023-05-19T06:08:47.830Z,15.80
2023-05-19T06:11:14.828Z,15.78
2023-05-19T06:13:41.722Z,15.96
2023-05-19T06:16:11.148Z,16.24
2023-05-19T06:18:38.118Z,16.54
2023-05-19T06:21:10.096Z,16.87
2023-05-19T06:23:37.288Z,17.16
2023-05-19T06:26:04.236Z,17.23
2023-05-19T06:28:31.719Z,17.51
2023-05-19T06:31:01.657Z,17.61
2023-05-19T06:33:29.355Z,18.04
2023-05-19T06:36:01.872Z,17.82
2023-05-19T06:38:28.797Z,17.97
2023-05-19T06:40:55.743Z,18.10
2023-05-19T06:43:22.735Z,18.32
2023-05-19T06:45:49.649Z,18.43
2023-05-19T06:48:16.694Z,18.60
2023-05-19T06:50:43.768Z,19.03
2023-05-19T06:53:10.775Z,18.80
2023-05-19T06:55:50.469Z,18.91
2023-05-19T06:58:24.596Z,19.10
2023-05-19T07:00:51.495Z,18.69
2023-05-19T07:03:23.450Z,19.04
2023-05-19T07:05:57.585Z,18.99
2023-05-19T07:08:27.747Z,19.07
2023-05-19T07:10:56.844Z,18.95
2023-05-19T07:13:27.449Z,19.06
2023-05-19T07:15:57.846Z,19.27
2023-05-19T07:18:25.579Z,19.46
2023-05-19T07:20:55.604Z,19.30
2023-05-19T07:23:24.745Z,19.26
2023-05-19T07:25:56.407Z,19.73
2023-05-19T07:28:23.562Z,19.86
2023-05-19T07:30:50.689Z,19.95
2023-05-19T07:33:17.632Z,19.97
2023-05-19T07:35:45.555Z,19.67
2023-05-19T07:38:12.528Z,19.89
2023-05-19T07:40:41.774Z,20.13
2023-05-19T07:43:08.785Z,20.32
2023-05-19T07:45:35.767Z,20.02
2023-05-19T07:48:02.899Z,20.11
2023-05-19T07:50:30.155Z,20.52
2023-05-19T07:52:59.363Z,20.26
2023-05-19T07:55:26.407Z,20.49
2023-05-19T07:57:53.398Z,20.51
2023-05-19T08:00:20.637Z,20.47
2023-05-19T08:02:50.240Z,21.16
2023-05-19T08:05:17.497Z,21.23
2023-05-19T08:07:44.412Z,20.94
2023-05-19T08:10:13.856Z,21.23
2023-05-19T08:12:40.892Z,21.73
2023-05-19T08:15:08.454Z,21.65
2023-05-19T08:17:35.414Z,21.33
2023-05-19T08:20:03.893Z,21.21
2023-05-19T08:22:30.826Z,21.18
2023-05-19T08:24:58.068Z,21.22
2023-05-19T08:27:25.072Z,21.03
2023-05-19T08:29:51.998Z,21.43
2023-05-19T08:32:24.434Z,21.59
2023-05-19T08:34:53.837Z,21.75
2023-05-19T08:37:23.188Z,22.16
2023-05-19T08:39:50.160Z,22.31
2023-05-19T08:42:17.150Z,22.31
2023-05-19T08:44:44.168Z,22.20
2023-05-19T08:47:14.300Z,22.19
2023-05-19T08:49:53.372Z,22.54
2023-05-19T08:52:52.481Z,22.35
2023-05-19T08:56:11.945Z,22.98
2023-05-19T08:58:45.969Z,22.97
2023-05-19T09:01:19.379Z,23.04
2023-05-19T09:03:50.169Z,23.25
2023-05-19T09:06:19.967Z,23.47
2023-05-19T09:08:47.203Z,22.91
2023-05-19T09:11:14.535Z,22.58
2023-05-19T09:13:44.090Z,22.61
2023-05-19T09:16:14.195Z,22.69
2023-05-19T09:18:43.782Z,23.01
2023-05-19T09:21:12.980Z,23.37
2023-05-19T09:23:47.732Z,23.48
2023-05-19T09:26:15.799Z,23.91
2023-05-19T09:28:43.150Z,24.02
2023-05-19T09:31:11.387Z,23.70
2023-05-19T09:33:45.526Z,23.48
2023-05-19T09:36:13.868Z,23.73
2023-05-19T09:38:41.577Z,23.80
2023-05-19T09:41:09.797Z,23.63
2023-05-19T09:43:39.480Z,23.64
2023-05-19T09:46:16.263Z,23.51
2023-05-19T09:48:43.890Z,23.40
2023-05-19T09:51:13.278Z,23.69
2023-05-19T09:53:42.648Z,23.63
2023-05-19T09:56:12.538Z,23.76
2023-05-19T09:58:42.724Z,23.67
2023-05-19T10:01:12.414Z,23.59
2023-05-19T10:03:40.664Z,23.81
2023-05-19T10:06:11.439Z,24.02
2023-05-19T10:08:42.468Z,24.15
2023-05-19T10:11:11.471Z,23.91
2023-05-19T10:13:41.938Z,24.46
2023-05-19T10:16:10.771Z,24.44
2023-05-19T10:18:41.066Z,24.88
2023-05-19T10:21:09.615Z,24.98
2023-05-19T10:23:37.025Z,24.92
2023-05-19T10:26:06.760Z,24.42
2023-05-19T10:28:42.334Z,24.40
2023-05-19T10:31:17.356Z,24.68
2023-05-19T10:34:34.832Z,24.32
2023-05-19T10:37:28.944Z,24.33
2023-05-19T10:39:57.697Z,24.56
2023-05-19T10:43:05.094Z,25.16
2023-05-19T10:45:44.929Z,25.09
2023-05-19T10:48:17.147Z,24.64
2023-05-19T10:50:46.501Z,24.56
2023-05-19T10:53:25.727Z,25.04
2023-05-19T10:56:04.487Z,24.97
2023-05-19T10:58:53.149Z,25.18
2023-05-19T11:01:22.261Z,25.41
2023-05-19T11:03:57.501Z,24.41
2023-05-19T11:06:40.520Z,23.96
2023-05-19T11:09:39.705Z,24.59
2023-05-19T11:12:11.320Z,24.74
2023-05-19T11:14:41.488Z,24.39
2023-05-19T11:17:15.602Z,24.26
2023-05-19T11:20:00.246Z,24.03
2023-05-19T11:22:30.697Z,23.91
2023-05-19T11:25:01.360Z,23.50
2023-05-19T11:27:38.253Z,23.62
2023-05-19T11:30:14.882Z,23.85
2023-05-19T11:32:42.996Z,23.79
2023-05-19T11:35:11.466Z,23.68
2023-05-19T11:37:40.542Z,23.43
2023-05-19T11:40:09.839Z,24.34
2023-05-19T11:42:37.365Z,25.10
2023-05-19T11:45:09.009Z,25.31
2023-05-19T11:47:59.727Z,25.57
2023-05-19T11:50:26.682Z,25.11
2023-05-19T11:52:56.284Z,24.69
2023-05-19T11:55:23.531Z,24.16
2023-05-19T11:58:05.635Z,24.12
2023-05-19T12:00:41.057Z,24.26
2023-05-19T12:03:09.425Z,24.88
2023-05-19T12:05:49.383Z,24.92
2023-05-19T12:08:21.627Z,24.51
2023-05-19T12:10:52.551Z,23.35
2023-05-19T12:13:21.000Z,23.58
2023-05-19T12:15:50.840Z,23.57
2023-05-19T12:18:17.839Z,23.91
2023-05-19T12:20:44.976Z,23.74
2023-05-19T12:23:15.086Z,24.02
2023-05-19T12:25:42.263Z,23.84
2023-05-19T12:28:09.710Z,24.44
2023-05-19T12:30:37.152Z,24.33
2023-05-19T12:33:04.857Z,24.37
2023-05-19T12:35:36.480Z,24.17
2023-05-19T12:38:05.565Z,24.39
2023-05-19T12:40:35.929Z,24.45
2023-05-19T12:43:06.845Z,24.93
2023-05-19T12:45:39.656Z,25.32
2023-05-19T12:48:12.402Z,25.37
2023-05-19T12:50:42.203Z,25.22
2023-05-19T12:53:14.095Z,24.93
2023-05-19T12:55:45.898Z,24.12
2023-05-19T12:58:19.122Z,24.17
2023-05-19T13:00:48.514Z,23.93
2023-05-19T13:03:20.552Z,23.38
2023-05-19T13:05:50.688Z,23.23
2023-05-19T13:08:23.989Z,23.22
2023-05-19T13:10:53.344Z,23.19
2023-05-19T13:13:24.852Z,22.83
2023-05-19T13:15:56.515Z,22.86
2023-05-19T13:18:27.578Z,22.88
2023-05-19T13:20:54.710Z,22.58
2023-05-19T13:23:21.682Z,22.56
2023-05-19T13:25:50.794Z,22.71
2023-05-19T13:28:20.308Z,22.74
2023-05-19T13:30:48.290Z,22.77
2023-05-19T13:33:15.345Z,22.79
2023-05-19T13:35:42.462Z,23.01
2023-05-19T13:38:15.392Z,23.43
2023-05-19T13:40:42.536Z,23.74
2023-05-19T13:43:09.584Z,23.77
2023-05-19T13:45:37.230Z,24.13
2023-05-19T13:48:07.414Z,23.83
2023-05-19T13:50:36.893Z,23.99
2023-05-19T13:53:06.165Z,24.06
2023-05-19T13:55:33.518Z,23.56
2023-05-19T13:58:03.491Z,23.61
2023-05-19T14:00:32.031Z,23.37
2023-05-19T14:03:00.445Z,23.56
2023-05-19T14:05:28.985Z,23.44
2023-05-19T14:07:56.102Z,23.35
2023-05-19T14:10:25.717Z,23.56
2023-05-19T14:13:18.254Z,23.90
2023-05-19T14:15:41.374Z,23.95
2023-05-19T14:18:08.464Z,24.26
2023-05-19T14:20:37.619Z,24.51
2023-05-19T14:23:07.308Z,24.44
2023-05-19T14:25:34.571Z,24.29
2023-05-19T14:28:06.562Z,24.33
2023-05-19T14:30:33.648Z,24.80
2023-05-19T14:33:01.068Z,24.48
2023-05-19T14:35:28.220Z,24.40
2023-05-19T14:37:55.364Z,23.66
2023-05-19T14:40:24.924Z,23.14
2023-05-19T14:42:54.325Z,22.90
2023-05-19T14:45:21.589Z,22.67
2023-05-19T14:47:51.159Z,22.82
2023-05-19T14:50:18.399Z,22.66
2023-05-19T14:52:45.430Z,23.16
2023-05-19T14:55:15.113Z,23.10
2023-05-19T14:57:42.038Z,22.91
2023-05-19T15:00:12.224Z,22.50
2023-05-19T15:02:39.216Z,22.85
2023-05-19T15:05:06.481Z,22.69
2023-05-19T15:07:33.438Z,22.64
2023-05-19T15:10:05.882Z,22.78
2023-05-19T15:12:32.757Z,22.23
2023-05-19T15:15:02.378Z,22.41
2023-05-19T15:17:34.111Z,22.19
2023-05-19T15:20:01.372Z,22.13
2023-05-19T15:22:30.996Z,22.34
2023-05-19T15:25:02.882Z,22.52
2023-05-19T15:27:29.805Z,22.58
2023-05-19T15:29:56.697Z,22.50
2023-05-19T15:32:26.665Z,23.00
2023-05-19T15:34:53.851Z,23.00
2023-05-19T15:37:20.772Z,23.04
2023-05-19T15:39:48.216Z,23.03
2023-05-19T15:42:17.601Z,22.97
2023-05-19T15:44:46.154Z,22.90
2023-05-19T15:47:13.244Z,22.66
2023-05-19T15:49:40.279Z,22.67
2023-05-19T15:52:10.522Z,22.96
2023-05-19T15:54:37.447Z,22.99
2023-05-19T15:57:04.797Z,23.07
2023-05-19T15:59:31.843Z,23.05
2023-05-19T16:02:01.370Z,23.01
2023-05-19T16:04:28.533Z,22.86
2023-05-19T16:06:58.144Z,22.77
2023-05-19T16:09:25.023Z,22.61
2023-05-19T16:11:51.980Z,22.45
2023-05-19T16:14:21.389Z,22.50
2023-05-19T16:16:48.715Z,22.52
2023-05-19T16:19:18.324Z,22.72
2023-05-19T16:21:45.442Z,22.76
2023-05-19T16:24:14.948Z,22.79
2023-05-19T16:26:42.032Z,22.58
2023-05-19T16:29:09.276Z,22.84
2023-05-19T16:31:36.291Z,22.91
2023-05-19T16:34:03.360Z,22.40
2023-05-19T16:36:31.942Z,22.23
2023-05-19T16:38:59.026Z,22.14
2023-05-19T16:41:26.765Z,22.14
2023-05-19T16:43:56.407Z,21.90
2023-05-19T16:46:23.826Z,21.78
2023-05-19T16:48:56.083Z,22.34
2023-05-19T16:51:23.347Z,22.29
2023-05-19T16:53:50.372Z,21.95
2023-05-19T16:56:17.554Z,22.13
2023-05-19T16:58:44.875Z,22.09
2023-05-19T17:01:14.650Z,22.03
2023-05-19T17:03:44.247Z,22.21
2023-05-19T17:06:11.264Z,21.96
2023-05-19T17:08:38.357Z,21.94
2023-05-19T17:11:07.943Z,21.99
2023-05-19T17:13:36.400Z,21.94
2023-05-19T17:16:08.083Z,21.91
2023-05-19T17:18:35.095Z,22.21
2023-05-19T17:21:04.825Z,22.40
2023-05-19T17:23:32.538Z,21.93
2023-05-19T17:26:04.016Z,21.79
2023-05-19T17:28:31.013Z,21.71
2023-05-19T17:31:00.512Z,21.35
2023-05-19T17:33:27.798Z,21.12
2023-05-19T17:35:57.481Z,21.12
2023-05-19T17:38:24.575Z,20.91
2023-05-19T17:40:53.592Z,20.83
2023-05-19T17:43:22.997Z,21.01
2023-05-19T17:45:52.414Z,20.91
2023-05-19T17:48:19.738Z,21.19
2023-05-19T17:50:49.747Z,21.14
2023-05-19T17:53:24.284Z,20.87
2023-05-19T17:55:59.377Z,20.67
2023-05-19T17:58:31.640Z,20.75
2023-05-19T18:01:01.782Z,20.61
2023-05-19T18:03:29.482Z,20.50
2023-05-19T18:05:57.070Z,20.44
2023-05-19T18:08:24.549Z,20.19
2023-05-19T18:10:52.607Z,20.29
2023-05-19T18:13:19.893Z,20.32
2023-05-19T18:15:52.647Z,20.41
2023-05-19T18:18:19.958Z,20.27
2023-05-19T18:20:48.536Z,20.33
2023-05-19T18:23:22.451Z,20.19
2023-05-19T18:25:52.236Z,20.06
2023-05-19T18:28:19.415Z,20.33
2023-05-19T18:30:46.752Z,20.45
2023-05-19T18:33:18.543Z,20.25
2023-05-19T18:35:51.104Z,20.19
2023-05-19T18:38:23.657Z,20.22
2023-05-19T18:40:51.401Z,20.29
2023-05-19T18:43:22.451Z,20.16
2023-05-19T18:45:54.551Z,20.14
2023-05-19T18:48:22.628Z,20.06
2023-05-19T18:50:52.841Z,19.78
2023-05-19T18:53:22.821Z,19.79
2023-05-19T18:55:52.241Z,19.72
2023-05-19T18:58:21.859Z,19.72
2023-05-19T19:00:51.293Z,19.54
2023-05-19T19:03:18.545Z,19.48
2023-05-19T19:05:46.030Z,19.43
2023-05-19T19:08:13.336Z,19.43
2023-05-19T19:10:40.802Z,19.42
2023-05-19T19:13:08.472Z,19.46
2023-05-19T19:15:39.687Z,19.20
2023-05-19T19:18:08.185Z,19.20
2023-05-19T19:20:37.770Z,19.06
2023-05-19T19:23:09.567Z,18.99
2023-05-19T19:25:39.335Z,19.03
2023-05-19T19:28:06.272Z,18.97
2023-05-19T19:30:35.982Z,19.12
2023-05-19T19:33:06.812Z,18.89
2023-05-19T19:35:34.825Z,18.56
2023-05-19T19:38:01.818Z,18.73
2023-05-19T19:40:32.708Z,18.87
2023-05-19T19:42:59.837Z,18.79
2023-05-19T19:45:29.151Z,18.73
2023-05-19T19:47:56.849Z,18.60
2023-05-19T19:50:26.209Z,18.37
2023-05-19T19:52:55.392Z,18.47
2023-05-19T19:55:22.424Z,18.50
2023-05-19T19:57:51.595Z,18.46
2023-05-19T20:00:19.011Z,18.42
2023-05-19T20:03:03.615Z,18.18
2023-05-19T20:05:31.114Z,18.11
2023-05-19T20:08:00.719Z,18.20
2023-05-19T20:10:27.787Z,18.31
2023-05-19T20:12:59.166Z,18.16
2023-05-19T20:15:26.895Z,18.26
2023-05-19T20:17:54.142Z,17.90
2023-05-19T20:20:21.832Z,17.98
2023-05-19T20:22:48.876Z,18.00
2023-05-19T20:25:15.947Z,18.00
2023-05-19T20:27:42.994Z,18.08
2023-05-19T20:30:13.510Z,18.08
2023-05-19T20:32:40.718Z,17.98
2023-05-19T20:35:08.737Z,18.14
2023-05-19T20:37:38.716Z,17.94
2023-05-19T20:40:09.015Z,17.96
2023-05-19T20:42:39.034Z,17.74
2023-05-19T20:45:07.109Z,17.65
2023-05-19T20:47:36.625Z,17.94
2023-05-19T20:50:09.187Z,17.86
2023-05-19T20:52:36.471Z,17.69
2023-05-19T20:55:05.973Z,18.04
2023-05-19T20:57:33.157Z,17.93
2023-05-19T21:00:00.171Z,17.77
2023-05-19T21:02:27.336Z,17.57
2023-05-19T21:04:54.814Z,17.40
2023-05-19T21:07:24.616Z,17.41
2023-05-19T21:09:52.318Z,17.35
2023-05-19T21:12:25.396Z,17.15
2023-05-19T21:14:55.245Z,17.11
2023-05-19T21:17:24.757Z,17.20
2023-05-19T21:19:56.389Z,17.06
2023-05-19T21:22:24.776Z,17.21
2023-05-19T21:24:54.908Z,17.38
2023-05-19T21:27:22.171Z,17.26
2023-05-19T21:29:54.187Z,17.25
2023-05-19T21:32:21.996Z,17.16
2023-05-19T21:34:51.152Z,17.14
2023-05-19T21:37:18.165Z,17.33
2023-05-19T21:39:47.716Z,16.99
2023-05-19T21:42:14.900Z,17.07
2023-05-19T21:44:44.474Z,17.06
2023-05-19T21:47:14.144Z,16.88
2023-05-19T21:49:41.279Z,16.78
2023-05-19T21:52:08.386Z,16.64
2023-05-19T21:54:37.978Z,16.45
2023-05-19T21:57:05.572Z,16.81
2023-05-19T21:59:32.758Z,16.74
2023-05-19T22:01:59.843Z,16.53
2023-05-19T22:04:27.133Z,16.56
2023-05-19T22:06:54.142Z,16.38
2023-05-19T22:09:21.667Z,16.28
2023-05-19T22:11:48.630Z,16.44
2023-05-19T22:14:18.194Z,16.33
2023-05-19T22:16:47.752Z,16.31
2023-05-19T22:19:15.062Z,16.43
2023-05-19T22:21:41.958Z,16.25
2023-05-19T22:24:09.129Z,16.27
2023-05-19T22:26:36.368Z,16.26
2023-05-19T22:29:03.465Z,16.19
2023-05-19T22:31:32.785Z,16.13
2023-05-19T22:33:59.824Z,16.38
2023-05-19T22:36:26.814Z,16.38
2023-05-19T22:38:53.790Z,16.22
2023-05-19T22:41:23.834Z,16.32
2023-05-19T22:43:51.007Z,16.18
2023-05-19T22:46:18.325Z,16.32
2023-05-19T22:48:45.349Z,16.10
2023-05-19T22:51:15.004Z,16.06
2023-05-19T22:53:42.777Z,16.02
2023-05-19T22:56:09.756Z,15.87
2023-05-19T22:58:37.033Z,15.80
2023-05-19T23:01:03.973Z,15.89
2023-05-19T23:03:31.258Z,15.81
2023-05-19T23:05:58.549Z,15.82
2023-05-19T23:08:25.571Z,15.86
2023-05-19T23:10:52.638Z,15.68
2023-05-19T23:13:21.824Z,15.52
2023-05-19T23:15:49.325Z,15.51
2023-05-19T23:18:18.483Z,15.40
2023-05-19T23:20:47.707Z,15.29
2023-05-19T23:23:15.084Z,15.29
2023-05-19T23:25:45.175Z,15.37
2023-05-19T23:28:12.358Z,15.24
2023-05-19T23:30:39.683Z,15.22
2023-05-19T23:33:06.589Z,15.12
2023-05-19T23:35:33.803Z,15.18
2023-05-19T23:38:01.264Z,15.18
2023-05-19T23:40:30.929Z,15.28
2023-05-19T23:42:57.969Z,15.28
2023-05-19T23:45:27.271Z,15.28
2023-05-19T23:47:54.248Z,15.29
2023-05-19T23:50:21.148Z,15.34
2023-05-19T23:52:51.131Z,15.36
2023-05-19T23:55:18.424Z,15.18
2023-05-19T23:57:47.541Z,15.20
